createdAt,value
2022-08-09T00:01:27.864Z,20.28
2022-08-09T00:04:33.798Z,20.13
2022-08-09T00:07:02.219Z,20.25
2022-08-09T00:09:29.572Z,20.18
2022-08-09T00:12:04.085Z,20.16
2022-08-09T00:14:37.844Z,20.04
2022-08-09T00:17:06.126Z,20.06
2022-08-09T00:19:34.082Z,19.97
2022-08-09T00:22:03.592Z,19.89
2022-08-09T00:24:32.037Z,19.96
2022-08-09T00:27:00.884Z,19.84
2022-08-09T00:30:09.879Z,19.82
2022-08-09T00:32:27.057Z,19.75
2022-08-09T00:34:54.896Z,19.85
2022-08-09T00:37:21.856Z,19.77
2022-08-09T00:40:12.753Z,19.70
2022-08-09T00:44:13.222Z,19.57
2022-08-09T00:45:24.583Z,19.61
2022-08-09T00:47:52.488Z,19.49
2022-08-09T00:50:23.539Z,19.57
2022-08-09T00:52:50.822Z,19.47
2022-08-09T00:56:03.052Z,19.54
2022-08-09T00:58:05.962Z,19.62
2022-08-09T01:00:40.784Z,19.49
2022-08-09T01:03:40.676Z,19.45
2022-08-09T01:06:25.603Z,19.43
2022-08-09T01:09:46.885Z,19.45
2022-08-09T01:12:55.799Z,19.41
2022-08-09T01:15:29.402Z,19.29
2022-08-09T01:18:05.286Z,19.28
2022-08-09T01:21:10.216Z,19.25
2022-08-09T01:24:02.478Z,19.23
2022-08-09T01:26:54.066Z,19.15
2022-08-09T01:29:55.977Z,19.19
2022-08-09T01:32:46.059Z,19.15
2022-08-09T01:35:37.384Z,19.17
2022-08-09T01:38:15.395Z,19.09
2022-08-09T01:41:05.208Z,18.90
2022-08-09T01:43:50.354Z,18.94
2022-08-09T01:46:28.462Z,18.86
2022-08-09T01:49:10.566Z,18.87
2022-08-09T01:51:44.275Z,18.82
2022-08-09T01:54:14.179Z,18.74
2022-08-09T01:56:47.118Z,18.75
2022-08-09T01:59:21.305Z,18.75
2022-08-09T02:01:59.669Z,18.71
2022-08-09T02:04:30.050Z,18.69
2022-08-09T02:07:08.722Z,18.61
2022-08-09T02:10:03.804Z,18.57
2022-08-09T02:12:35.118Z,18.61
2022-08-09T02:15:06.359Z,18.48
2022-08-09T02:18:01.066Z,18.36
2022-08-09T02:20:32.756Z,18.36
2022-08-09T02:23:17.278Z,18.29
2022-08-09T02:25:52.744Z,18.31
2022-08-09T02:28:36.135Z,18.40
2022-08-09T02:31:08.247Z,18.23
2022-08-09T02:34:06.543Z,18.53
2022-08-09T02:36:39.886Z,18.53
2022-08-09T02:39:19.992Z,18.42
2022-08-09T02:42:16.722Z,18.53
2022-08-09T02:44:55.670Z,18.36
2022-08-09T02:47:24.350Z,18.32
2022-08-09T02:50:01.813Z,18.27
2022-08-09T02:52:37.962Z,18.25
2022-08-09T02:55:20.795Z,18.32
2022-08-09T02:58:00.269Z,18.20
2022-08-09T03:00:58.208Z,18.20
2022-08-09T03:03:37.214Z,18.00
2022-08-09T03:06:15.057Z,18.09
2022-08-09T03:08:47.514Z,18.11
2022-08-09T03:12:04.217Z,18.02
2022-08-09T03:14:10.634Z,17.99
2022-08-09T03:16:44.729Z,18.03
2022-08-09T03:19:52.370Z,18.03
2022-08-09T03:22:06.101Z,17.77
2022-08-09T03:24:52.414Z,17.86
2022-08-09T03:27:22.264Z,17.78
2022-08-09T03:29:57.579Z,17.89
2022-08-09T03:32:30.762Z,17.90
2022-08-09T03:34:59.286Z,17.74
2022-08-09T03:37:54.681Z,17.75
2022-08-09T03:40:18.200Z,17.86
2022-08-09T03:42:46.806Z,17.75
2022-08-09T03:45:15.576Z,17.82
2022-08-09T03:47:46.499Z,17.67
2022-08-09T03:50:14.626Z,17.73
2022-08-09T03:52:58.315Z,17.61
2022-08-09T03:55:26.662Z,17.46
2022-08-09T03:58:06.376Z,17.34
2022-08-09T04:00:39.063Z,17.40
2022-08-09T04:03:06.975Z,17.33
2022-08-09T04:05:33.868Z,17.47
2022-08-09T04:08:07.437Z,17.52
2022-08-09T04:10:35.791Z,17.60
2022-08-09T04:13:09.438Z,17.49
2022-08-09T04:16:17.733Z,17.50
2022-08-09T04:18:26.126Z,17.32
2022-08-09T04:20:55.427Z,17.36
2022-08-09T04:23:24.934Z,17.34
2022-08-09T04:25:54.712Z,17.39
2022-08-09T04:28:33.873Z,17.46
2022-08-09T04:31:08.406Z,17.42
2022-08-09T04:33:52.037Z,17.47
2022-08-09T04:36:23.286Z,17.54
2022-08-09T04:38:50.312Z,17.37
2022-08-09T04:41:17.203Z,17.43
2022-08-09T04:43:53.860Z,17.35
2022-08-09T04:46:37.946Z,17.33
2022-08-09T04:49:30.127Z,17.26
2022-08-09T04:52:07.501Z,17.43
2022-08-09T04:54:36.602Z,17.46
2022-08-09T04:57:03.915Z,17.39
2022-08-09T04:59:31.604Z,17.38
2022-08-09T05:01:58.933Z,17.43
2022-08-09T05:04:30.635Z,17.49
2022-08-09T05:06:58.732Z,17.48
2022-08-09T05:09:41.880Z,17.55
2022-08-09T05:12:11.121Z,17.69
2022-08-09T05:14:41.187Z,17.61
2022-08-09T05:17:15.408Z,17.66
2022-08-09T05:19:56.619Z,17.51
2022-08-09T05:22:33.141Z,17.47
2022-08-09T05:25:04.807Z,17.73
2022-08-09T05:27:31.681Z,17.65
2022-08-09T05:29:59.067Z,17.71
2022-08-09T05:32:30.026Z,17.82
2022-08-09T05:34:57.081Z,17.85
2022-08-09T05:37:25.174Z,17.89
2022-08-09T05:39:52.396Z,17.92
2022-08-09T05:42:21.861Z,17.98
2022-08-09T05:44:55.865Z,17.77
2022-08-09T05:47:25.307Z,17.91
2022-08-09T05:50:34.947Z,18.04
2022-08-09T05:52:44.397Z,18.08
2022-08-09T05:55:21.232Z,18.00
2022-08-09T05:57:57.587Z,18.09
2022-08-09T06:00:28.737Z,18.20
2022-08-09T06:02:57.903Z,18.28
2022-08-09T06:05:31.108Z,18.16
2022-08-09T06:08:19.344Z,18.09
2022-08-09T06:10:52.166Z,18.15
2022-08-09T06:13:20.708Z,18.26
2022-08-09T06:15:52.939Z,18.26
2022-08-09T06:18:25.198Z,18.35
2022-08-09T06:20:58.443Z,18.37
2022-08-09T06:23:55.185Z,18.37
2022-08-09T06:26:22.289Z,18.41
2022-08-09T06:29:00.022Z,18.49
2022-08-09T06:31:31.488Z,18.56
2022-08-09T06:34:06.877Z,18.53
2022-08-09T06:36:34.325Z,18.63
2022-08-09T06:39:02.749Z,18.62
2022-08-09T06:42:07.688Z,18.61
2022-08-09T06:44:23.010Z,18.70
2022-08-09T06:46:54.961Z,18.70
2022-08-09T06:49:44.429Z,18.61
2022-08-09T06:52:12.129Z,18.86
2022-08-09T06:54:42.725Z,19.00
2022-08-09T06:57:11.922Z,19.05
2022-08-09T07:00:50.247Z,19.09
2022-08-09T07:02:31.012Z,19.17
2022-08-09T07:05:00.271Z,19.16
2022-08-09T07:07:58.664Z,19.26
2022-08-09T07:10:24.402Z,19.14
2022-08-09T07:12:57.133Z,19.38
2022-08-09T07:16:34.852Z,19.40
2022-08-09T07:18:11.729Z,19.57
2022-08-09T07:20:43.331Z,19.55
2022-08-09T07:23:18.328Z,19.52
2022-08-09T07:25:48.374Z,19.64
2022-08-09T07:28:28.058Z,19.75
2022-08-09T07:30:55.675Z,19.62
2022-08-09T07:33:23.295Z,19.86
2022-08-09T07:35:54.057Z,19.93
2022-08-09T07:38:23.493Z,20.01
2022-08-09T07:41:00.846Z,20.12
2022-08-09T07:43:41.387Z,20.17
2022-08-09T07:46:19.149Z,20.15
2022-08-09T07:48:59.648Z,20.30
2022-08-09T07:52:03.170Z,20.29
2022-08-09T07:54:14.986Z,20.35
2022-08-09T07:56:48.915Z,20.44
2022-08-09T07:59:33.798Z,20.52
2022-08-09T08:02:05.875Z,20.59
2022-08-09T08:04:33.129Z,20.60
2022-08-09T08:07:15.598Z,20.69
2022-08-09T08:10:05.853Z,20.92
2022-08-09T08:12:43.530Z,20.93
2022-08-09T08:15:14.124Z,21.11
2022-08-09T08:17:54.636Z,21.11
2022-08-09T08:20:32.329Z,21.30
2022-08-09T08:23:16.983Z,21.35
2022-08-09T08:25:48.432Z,21.36
2022-08-09T08:28:26.107Z,21.49
2022-08-09T08:31:02.476Z,21.54
2022-08-09T08:33:52.218Z,21.59
2022-08-09T08:36:28.417Z,21.72
2022-08-09T08:38:56.758Z,21.78
2022-08-09T08:41:41.893Z,21.86
2022-08-09T08:44:14.392Z,22.01
2022-08-09T08:47:02.139Z,22.03
2022-08-09T08:49:46.450Z,22.27
2022-08-09T08:52:48.474Z,22.34
2022-08-09T08:55:04.002Z,22.44
2022-08-09T08:57:34.671Z,22.54
2022-08-09T09:00:13.079Z,22.54
2022-08-09T09:02:52.878Z,22.65
2022-08-09T09:05:33.036Z,22.58
2022-08-09T09:08:30.157Z,22.62
2022-08-09T09:11:02.476Z,22.94
2022-08-09T09:13:41.572Z,23.14
2022-08-09T09:16:29.944Z,23.12
2022-08-09T09:19:36.774Z,23.18
2022-08-09T09:22:04.935Z,23.20
2022-08-09T09:24:43.688Z,23.48
2022-08-09T09:28:06.519Z,23.72
2022-08-09T09:30:27.380Z,23.61
2022-08-09T09:33:15.549Z,23.58
2022-08-09T09:36:02.410Z,23.83
2022-08-09T09:38:47.891Z,24.63
2022-08-09T09:41:24.028Z,24.67
2022-08-09T09:44:11.398Z,24.60
2022-08-09T09:46:45.907Z,24.79
2022-08-09T09:49:49.811Z,24.86
2022-08-09T09:52:16.436Z,25.23
2022-08-09T09:55:27.818Z,25.37
2022-08-09T09:58:18.669Z,25.42
2022-08-09T10:00:58.799Z,25.64
2022-08-09T10:03:57.777Z,25.33
2022-08-09T10:06:42.798Z,25.23
2022-08-09T10:09:22.639Z,25.13
2022-08-09T10:12:11.691Z,25.23
2022-08-09T10:14:43.921Z,25.15
2022-08-09T10:17:50.609Z,25.19
2022-08-09T10:20:27.448Z,25.28
2022-08-09T10:23:20.478Z,25.27
2022-08-09T10:26:04.934Z,25.44
2022-08-09T10:28:37.440Z,25.49
2022-08-09T10:34:10.506Z,25.70
2022-08-09T10:36:42.933Z,25.77
2022-08-09T10:39:15.423Z,25.80
2022-08-09T10:41:46.209Z,25.82
2022-08-09T10:44:19.391Z,25.95
2022-08-09T10:48:12.501Z,26.06
2022-08-09T10:50:31.303Z,26.13
2022-08-09T10:53:21.175Z,26.18
2022-08-09T10:55:55.356Z,26.15
2022-08-09T10:58:34.697Z,26.21
2022-08-09T11:03:02.915Z,26.18
2022-08-09T11:04:20.037Z,26.42
2022-08-09T11:06:58.076Z,26.51
2022-08-09T11:09:41.213Z,26.59
2022-08-09T11:12:15.072Z,26.77
2022-08-09T11:14:57.385Z,27.07
2022-08-09T11:17:27.276Z,27.17
2022-08-09T11:20:20.011Z,27.44
2022-08-09T11:22:57.038Z,29.09
2022-08-09T11:25:45.235Z,31.85
2022-08-09T11:28:54.439Z,35.21
2022-08-09T11:31:49.580Z,37.34
2022-08-09T11:34:24.914Z,38.22
2022-08-09T11:36:52.967Z,39.79
2022-08-09T11:39:20.043Z,40.15
2022-08-09T11:41:47.024Z,40.56
2022-08-09T11:44:15.764Z,40.60
2022-08-09T11:46:57.980Z,40.57
2022-08-09T11:50:53.894Z,41.17
2022-08-09T11:53:28.186Z,41.97
2022-08-09T11:55:52.261Z,42.85
2022-08-09T11:58:30.453Z,42.41
2022-08-09T12:01:09.057Z,42.47
2022-08-09T12:04:01.502Z,42.70
2022-08-09T12:06:32.010Z,41.88
2022-08-09T12:09:03.688Z,39.69
2022-08-09T12:11:44.503Z,39.53
2022-08-09T12:14:36.523Z,37.78
2022-08-09T12:17:33.807Z,37.10
2022-08-09T12:19:59.498Z,36.21
2022-08-09T12:22:27.949Z,35.55
2022-08-09T12:25:36.568Z,35.02
2022-08-09T12:29:11.408Z,34.57
2022-08-09T12:31:31.180Z,34.41
2022-08-09T12:34:13.890Z,33.67
2022-08-09T12:36:58.666Z,33.32
2022-08-09T12:39:37.802Z,33.26
2022-08-09T12:42:11.230Z,32.75
2022-08-09T12:44:46.282Z,32.15
2022-08-09T12:47:22.884Z,31.97
2022-08-09T12:50:09.566Z,31.73
2022-08-09T12:52:58.322Z,31.60
2022-08-09T12:56:14.242Z,31.17
2022-08-09T12:58:24.163Z,31.08
2022-08-09T13:00:54.522Z,31.00
2022-08-09T13:03:58.429Z,30.75
2022-08-09T13:06:34.274Z,30.48
2022-08-09T13:09:15.983Z,30.22
2022-08-09T13:11:46.940Z,30.14
2022-08-09T13:14:40.698Z,30.08
2022-08-09T13:17:16.184Z,30.04
2022-08-09T13:20:08.901Z,29.95
2022-08-09T13:23:05.297Z,29.94
2022-08-09T13:25:54.379Z,29.69
2022-08-09T13:28:34.506Z,29.77
2022-08-09T13:32:15.195Z,29.72
2022-08-09T13:33:58.699Z,29.56
2022-08-09T13:36:42.236Z,29.59
2022-08-09T13:41:50.376Z,29.61
2022-08-09T13:42:03.301Z,29.69
2022-08-09T13:44:31.170Z,29.50
2022-08-09T13:47:29.011Z,29.59
2022-08-09T13:49:56.386Z,29.50
2022-08-09T13:52:29.409Z,29.55
2022-08-09T13:54:59.936Z,29.64
2022-08-09T13:57:39.917Z,29.56
2022-08-09T14:00:18.726Z,29.68
2022-08-09T14:03:03.977Z,29.72
2022-08-09T14:05:57.355Z,29.60
2022-08-09T14:08:24.247Z,29.63
2022-08-09T14:10:54.129Z,29.57
2022-08-09T14:14:16.368Z,29.50
2022-08-09T14:16:14.116Z,29.54
2022-08-09T14:18:43.313Z,29.50
2022-08-09T14:21:17.786Z,29.51
2022-08-09T14:23:54.933Z,29.48
2022-08-09T14:26:32.127Z,29.57
2022-08-09T14:29:07.546Z,29.62
2022-08-09T14:31:52.073Z,29.70
2022-08-09T14:34:27.299Z,29.69
2022-08-09T14:37:09.308Z,29.71
2022-08-09T14:39:45.134Z,29.65
2022-08-09T14:42:13.386Z,29.67
2022-08-09T14:46:57.306Z,29.61
2022-08-09T14:47:56.978Z,29.61
2022-08-09T14:50:24.707Z,29.71
2022-08-09T14:52:51.543Z,29.64
2022-08-09T14:55:20.476Z,29.74
2022-08-09T14:57:49.135Z,29.65
2022-08-09T15:00:17.160Z,29.60
2022-08-09T15:02:47.791Z,29.54
2022-08-09T15:05:19.251Z,29.51
2022-08-09T15:07:56.233Z,29.52
2022-08-09T15:10:25.533Z,29.53
2022-08-09T15:12:54.178Z,29.56
2022-08-09T15:15:22.117Z,29.61
2022-08-09T15:17:52.571Z,29.53
2022-08-09T15:21:53.674Z,29.58
2022-08-09T15:24:01.448Z,29.68
2022-08-09T15:26:02.612Z,29.70
2022-08-09T15:28:33.557Z,29.64
2022-08-09T15:31:13.193Z,29.51
2022-08-09T15:34:18.281Z,29.59
2022-08-09T15:36:33.854Z,29.52
2022-08-09T15:39:01.645Z,29.56
2022-08-09T15:41:32.237Z,29.56
2022-08-09T15:44:03.796Z,29.66
2022-08-09T15:46:34.130Z,29.62
2022-08-09T15:49:21.722Z,29.66
2022-08-09T15:52:04.461Z,29.62
2022-08-09T15:54:44.889Z,29.53
2022-08-09T15:57:35.733Z,29.70
2022-08-09T16:00:15.226Z,29.69
2022-08-09T16:02:53.999Z,29.72
2022-08-09T16:05:24.277Z,29.69
2022-08-09T16:07:51.334Z,29.63
2022-08-09T16:10:38.796Z,29.66
2022-08-09T16:13:20.865Z,29.67
2022-08-09T16:16:09.803Z,29.69
2022-08-09T16:18:44.718Z,29.77
2022-08-09T16:21:17.524Z,29.78
2022-08-09T16:23:58.554Z,29.82
2022-08-09T16:26:35.664Z,29.81
2022-08-09T16:29:11.698Z,29.81
2022-08-09T16:32:17.720Z,29.64
2022-08-09T16:34:55.352Z,29.82
2022-08-09T16:37:20.365Z,29.87
2022-08-09T16:40:09.958Z,29.81
2022-08-09T16:42:37.951Z,29.80
2022-08-09T16:45:06.979Z,29.79
2022-08-09T16:48:38.847Z,29.79
2022-08-09T16:50:31.111Z,29.70
2022-08-09T16:53:01.856Z,29.81
2022-08-09T16:55:44.290Z,29.84
2022-08-09T16:58:17.121Z,29.83
2022-08-09T17:00:46.323Z,29.82
2022-08-09T17:03:22.015Z,29.79
2022-08-09T17:06:08.550Z,29.69
2022-08-09T17:08:58.864Z,29.80
2022-08-09T17:11:39.934Z,29.66
2022-08-09T17:14:26.738Z,29.62
2022-08-09T17:16:59.906Z,29.77
2022-08-09T17:19:46.786Z,29.72
2022-08-09T17:22:14.801Z,29.67
2022-08-09T17:24:47.851Z,29.69
2022-08-09T17:27:22.962Z,29.68
2022-08-09T17:29:51.176Z,29.62
2022-08-09T17:32:20.044Z,29.58
2022-08-09T17:35:07.406Z,29.51
2022-08-09T17:38:14.613Z,29.53
2022-08-09T17:40:25.979Z,29.45
2022-08-09T17:42:59.782Z,29.35
2022-08-09T17:46:04.389Z,29.36
2022-08-09T17:48:29.471Z,29.26
2022-08-09T17:51:08.758Z,29.30
2022-08-09T17:53:51.423Z,29.27
2022-08-09T17:56:27.633Z,29.21
2022-08-09T17:58:57.844Z,29.08
2022-08-09T18:01:25.049Z,29.06
2022-08-09T18:03:54.695Z,29.02
2022-08-09T18:06:31.670Z,28.97
2022-08-09T18:09:05.567Z,28.87
2022-08-09T18:12:05.626Z,28.77
2022-08-09T18:14:22.909Z,28.80
2022-08-09T18:16:50.791Z,28.75
2022-08-09T18:20:59.057Z,28.69
2022-08-09T18:22:13.229Z,28.61
2022-08-09T18:24:44.295Z,28.49
2022-08-09T18:27:33.670Z,28.50
2022-08-09T18:30:35.737Z,28.37
2022-08-09T18:32:54.126Z,28.36
2022-08-09T18:35:48.060Z,28.22
2022-08-09T18:38:09.738Z,28.17
2022-08-09T18:40:38.797Z,28.08
2022-08-09T18:43:05.624Z,28.08
2022-08-09T18:46:48.423Z,27.95
2022-08-09T18:48:19.242Z,27.95
2022-08-09T18:50:47.301Z,27.79
2022-08-09T18:53:16.540Z,27.76
2022-08-09T18:55:56.614Z,27.68
2022-08-09T18:58:32.502Z,27.59
2022-08-09T19:01:00.647Z,27.61
2022-08-09T19:03:28.813Z,27.47
2022-08-09T19:06:04.241Z,27.46
2022-08-09T19:08:32.704Z,27.30
2022-08-09T19:10:59.754Z,27.21
2022-08-09T19:13:49.860Z,27.20
2022-08-09T19:16:13.445Z,27.16
2022-08-09T19:18:48.581Z,27.04
2022-08-09T19:21:16.572Z,26.94
2022-08-09T19:24:33.050Z,26.86
2022-08-09T19:26:35.669Z,26.76
2022-08-09T19:29:09.768Z,26.66
2022-08-09T19:31:45.643Z,26.54
2022-08-09T19:34:22.226Z,26.56
2022-08-09T19:36:54.858Z,26.42
2022-08-09T19:39:42.992Z,26.31
2022-08-09T19:42:14.942Z,26.31
2022-08-09T19:44:50.701Z,26.24
2022-08-09T19:47:22.723Z,26.09
2022-08-09T19:50:08.985Z,26.13
2022-08-09T19:52:49.787Z,26.03
2022-08-09T19:55:25.580Z,25.87
2022-08-09T19:57:57.804Z,25.85
2022-08-09T20:00:24.660Z,25.78
2022-08-09T20:04:17.045Z,25.67
2022-08-09T20:05:41.372Z,25.69
2022-08-09T20:08:16.136Z,25.62
2022-08-09T20:10:52.295Z,25.48
2022-08-09T20:13:21.169Z,25.40
2022-08-09T20:16:32.766Z,25.39
2022-08-09T20:18:35.589Z,25.41
2022-08-09T20:21:03.220Z,25.27
2022-08-09T20:23:38.850Z,25.18
2022-08-09T20:26:07.808Z,25.26
2022-08-09T20:28:48.375Z,25.03
2022-08-09T20:31:16.904Z,25.14
2022-08-09T20:33:44.638Z,24.89
2022-08-09T20:36:12.682Z,25.00
2022-08-09T20:41:35.589Z,24.86
2022-08-09T20:44:10.375Z,24.85
2022-08-09T20:46:43.346Z,24.75
2022-08-09T20:49:13.582Z,24.73
2022-08-09T20:51:42.135Z,24.67
2022-08-09T20:54:16.720Z,24.62
2022-08-09T20:56:49.699Z,24.47
2022-08-09T20:59:50.240Z,24.47
2022-08-09T21:02:10.445Z,24.43
2022-08-09T21:05:53.402Z,24.31
2022-08-09T21:07:38.787Z,24.24
2022-08-09T21:10:11.820Z,24.20
2022-08-09T21:12:39.035Z,24.16
2022-08-09T21:15:10.799Z,24.13
2022-08-09T21:18:20.878Z,23.95
2022-08-09T21:20:30.253Z,23.96
2022-08-09T21:22:59.319Z,23.89
2022-08-09T21:25:56.298Z,23.84
2022-08-09T21:28:34.267Z,23.76
2022-08-09T21:31:16.131Z,23.77
2022-08-09T21:33:52.680Z,23.69
2022-08-09T21:36:23.454Z,23.58
2022-08-09T21:38:57.523Z,23.46
2022-08-09T21:42:04.588Z,23.40
2022-08-09T21:44:34.272Z,23.36
2022-08-09T21:47:07.892Z,23.33
2022-08-09T21:49:43.329Z,23.22
2022-08-09T21:52:17.751Z,23.03
2022-08-09T21:55:02.788Z,23.06
2022-08-09T21:57:38.788Z,23.02
2022-08-09T22:00:25.217Z,22.94
2022-08-09T22:02:58.717Z,22.76
2022-08-09T22:05:37.024Z,22.67
2022-08-09T22:08:12.827Z,22.57
2022-08-09T22:11:00.736Z,22.63
2022-08-09T22:13:31.392Z,22.57
2022-08-09T22:16:07.754Z,22.51
2022-08-09T22:18:52.120Z,22.55
2022-08-09T22:21:45.326Z,22.51
2022-08-09T22:24:21.013Z,22.46
2022-08-09T22:26:52.452Z,22.34
2022-08-09T22:29:28.864Z,22.32
2022-08-09T22:32:06.296Z,22.24
2022-08-09T22:34:59.082Z,22.25
2022-08-09T22:37:31.404Z,22.21
2022-08-09T22:40:09.538Z,22.07
2022-08-09T22:42:37.768Z,21.94
2022-08-09T22:48:13.802Z,22.05
2022-08-09T22:48:14.403Z,22.02
2022-08-09T22:50:40.167Z,21.87
2022-08-09T22:53:07.039Z,21.86
2022-08-09T22:56:06.428Z,21.82
2022-08-09T22:58:32.268Z,21.90
2022-08-09T23:01:05.616Z,21.80
2022-08-09T23:04:04.111Z,21.82
2022-08-09T23:06:35.025Z,21.80
2022-08-09T23:09:07.177Z,21.67
2022-08-09T23:11:34.321Z,21.61
2022-08-09T23:14:02.803Z,21.72
2022-08-09T23:16:29.622Z,21.68
2022-08-09T23:18:56.456Z,21.68
2022-08-09T23:21:25.260Z,21.64
2022-08-09T23:24:05.276Z,21.66
2022-08-09T23:26:38.513Z,21.63
2022-08-09T23:29:07.715Z,21.58
2022-08-09T23:31:34.574Z,21.58
2022-08-09T23:34:03.687Z,21.45
2022-08-09T23:36:31.349Z,21.42
2022-08-09T23:38:58.169Z,21.39
2022-08-09T23:41:28.719Z,21.49
2022-08-09T23:44:01.424Z,21.46
2022-08-09T23:46:30.059Z,21.55
2022-08-09T23:48:58.172Z,21.44
2022-08-09T23:51:25.671Z,21.53
2022-08-09T23:53:55.181Z,21.43
2022-08-09T23:56:53.766Z,21.41
2022-08-09T23:59:16.553Z,21.48
